createdAt,value
2023-02-21T00:02:20.345Z,5.38
2023-02-21T00:05:40.563Z,7.22
2023-02-21T00:09:00.793Z,7.35
2023-02-21T00:12:20.731Z,4.38
2023-02-21T00:15:40.994Z,5.65
2023-02-21T00:19:00.868Z,5.05
2023-02-21T00:22:20.667Z,4.50
2023-02-21T00:25:40.556Z,6.82
2023-02-21T00:29:00.484Z,5.20
2023-02-21T00:32:20.570Z,6.22
2023-02-21T00:35:40.640Z,10.25
2023-02-21T00:39:00.389Z,8.02
2023-02-21T00:42:20.782Z,4.88
2023-02-21T00:45:40.609Z,4.88
2023-02-21T00:49:00.656Z,5.57
2023-02-21T00:52:20.576Z,4.90
2023-02-21T00:55:40.507Z,6.55
2023-02-21T00:59:00.425Z,4.60
2023-02-21T01:02:20.654Z,4.20
2023-02-21T01:05:40.901Z,4.47
2023-02-21T01:09:05.420Z,5.07
2023-02-21T01:12:25.421Z,5.13
2023-02-21T01:15:45.375Z,5.90
2023-02-21T01:19:07.755Z,5.68
2023-02-21T01:22:27.938Z,4.90
2023-02-21T01:25:48.220Z,5.20
2023-02-21T01:29:08.170Z,5.70
2023-02-21T01:32:28.466Z,9.93
2023-02-21T01:35:48.580Z,9.88
2023-02-21T01:39:08.945Z,6.00
2023-02-21T01:42:29.944Z,6.70
2023-02-21T01:46:02.281Z,4.43
2023-02-21T01:49:31.569Z,6.30
2023-02-21T01:52:52.085Z,4.55
2023-02-21T01:56:14.589Z,6.25
2023-02-21T01:59:38.862Z,5.30
2023-02-21T02:03:10.850Z,6.93
2023-02-21T02:06:35.281Z,9.73
2023-02-21T02:09:55.458Z,9.90
2023-02-21T02:13:08.801Z,6.93
2023-02-21T02:16:20.934Z,5.13
2023-02-21T02:19:54.005Z,5.00
2023-02-21T02:23:16.658Z,6.22
2023-02-21T02:26:47.354Z,7.18
2023-02-21T02:30:08.027Z,6.75
2023-02-21T02:33:29.355Z,10.10
2023-02-21T02:36:39.706Z,3.70
2023-02-21T02:40:02.662Z,7.20
2023-02-21T02:43:30.820Z,8.18
2023-02-21T02:46:37.821Z,5.20
2023-02-21T02:49:43.289Z,4.45
2023-02-21T02:52:53.730Z,6.00
2023-02-21T02:56:00.738Z,4.68
2023-02-21T02:59:08.917Z,5.00
2023-02-21T03:02:16.502Z,6.22
2023-02-21T03:05:36.294Z,3.80
2023-02-21T03:09:09.094Z,4.57
2023-02-21T03:12:16.739Z,5.05
2023-02-21T03:15:27.374Z,5.90
2023-02-21T03:18:37.789Z,4.85
2023-02-21T03:21:46.892Z,5.80
2023-02-21T03:24:50.676Z,6.03
2023-02-21T03:27:55.277Z,7.28
2023-02-21T03:31:04.597Z,8.75
2023-02-21T03:34:06.770Z,5.57
2023-02-21T03:37:11.413Z,4.90
2023-02-21T03:40:17.456Z,5.72
2023-02-21T03:43:23.110Z,6.03
2023-02-21T03:46:30.974Z,7.72
2023-02-21T03:49:32.722Z,5.93
2023-02-21T03:52:34.554Z,9.60
2023-02-21T03:55:36.459Z,7.10
2023-02-21T03:58:42.667Z,6.97
2023-02-21T04:01:44.519Z,6.53
2023-02-21T04:04:48.488Z,7.55
2023-02-21T04:07:52.385Z,7.53
2023-02-21T04:10:53.844Z,7.25
2023-02-21T04:13:57.777Z,7.65
2023-02-21T04:16:59.224Z,7.35
2023-02-21T04:20:01.329Z,8.90
2023-02-21T04:23:03.951Z,7.20
2023-02-21T04:26:06.883Z,6.30
2023-02-21T04:29:15.761Z,6.35
2023-02-21T04:32:17.704Z,5.78
2023-02-21T04:35:19.521Z,9.18
2023-02-21T04:38:21.858Z,5.07
2023-02-21T04:41:23.608Z,5.60
2023-02-21T04:44:25.193Z,9.15
2023-02-21T04:47:26.702Z,7.00
2023-02-21T04:50:28.727Z,6.60
2023-02-21T04:53:30.174Z,8.88
2023-02-21T04:56:32.647Z,7.68
2023-02-21T04:59:34.113Z,6.50
2023-02-21T05:02:35.740Z,4.60
2023-02-21T05:05:37.312Z,6.68
2023-02-21T05:08:38.766Z,6.75
2023-02-21T05:11:41.305Z,6.25
2023-02-21T05:14:43.136Z,7.85
2023-02-21T05:17:46.272Z,6.80
2023-02-21T05:20:48.089Z,6.87
2023-02-21T05:23:58.244Z,6.70
2023-02-21T05:26:59.798Z,6.78
2023-02-21T05:30:01.414Z,13.40
2023-02-21T05:33:02.981Z,8.20
2023-02-21T05:36:04.843Z,7.63
2023-02-21T05:39:07.863Z,6.95
2023-02-21T05:42:09.718Z,8.57
2023-02-21T05:45:11.580Z,8.10
2023-02-21T05:48:13.070Z,7.22
2023-02-21T05:51:15.994Z,13.07
2023-02-21T05:54:20.439Z,5.70
2023-02-21T05:57:22.045Z,6.88
2023-02-21T06:00:28.969Z,6.30
2023-02-21T06:03:30.680Z,5.55
2023-02-21T06:06:32.204Z,5.20
2023-02-21T06:09:33.976Z,7.88
2023-02-21T06:12:36.350Z,6.00
2023-02-21T06:15:37.802Z,8.27
2023-02-21T06:18:39.617Z,8.38
2023-02-21T06:21:42.021Z,11.25
2023-02-21T06:24:43.892Z,10.95
2023-02-21T06:27:45.418Z,9.23
2023-02-21T06:30:46.950Z,9.75
2023-02-21T06:33:50.021Z,9.57
2023-02-21T06:36:52.973Z,10.10
2023-02-21T06:39:54.866Z,9.63
2023-02-21T06:42:56.361Z,11.65
2023-02-21T06:45:57.905Z,12.32
2023-02-21T06:48:59.636Z,14.05
2023-02-21T06:52:01.345Z,15.73
2023-02-21T06:55:02.866Z,13.45
2023-02-21T06:58:05.172Z,14.75
2023-02-21T07:01:06.688Z,9.88
2023-02-21T07:04:08.112Z,10.75
2023-02-21T07:07:09.560Z,38.75
2023-02-21T07:10:11.571Z,47.83
2023-02-21T07:13:13.000Z,43.85
2023-02-21T07:16:14.515Z,28.63
2023-02-21T07:22:19.014Z,12.65
2023-02-21T07:25:22.240Z,11.70
2023-02-21T07:28:23.794Z,9.77
2023-02-21T07:31:25.344Z,10.50
2023-02-21T07:34:26.878Z,15.80
2023-02-21T07:37:28.418Z,15.73
2023-02-21T07:40:29.934Z,10.85
2023-02-21T07:43:32.544Z,13.25
2023-02-21T07:46:34.822Z,10.90
2023-02-21T07:49:41.332Z,15.80
2023-02-21T07:52:42.928Z,18.10
2023-02-21T07:55:44.482Z,12.07
2023-02-21T07:58:45.943Z,15.60
2023-02-21T08:01:47.884Z,15.52
2023-02-21T08:04:52.816Z,12.73
2023-02-21T08:07:56.095Z,12.02
2023-02-21T08:10:57.694Z,14.47
2023-02-21T08:13:59.819Z,10.10
2023-02-21T08:17:01.312Z,11.65
2023-02-21T08:20:04.708Z,14.90
2023-02-21T08:23:06.129Z,8.47
2023-02-21T08:26:07.664Z,10.68
2023-02-21T08:29:09.267Z,11.05
2023-02-21T08:32:11.078Z,10.57
2023-02-21T08:35:15.328Z,8.98
2023-02-21T08:41:20.039Z,17.50
2023-02-21T08:44:21.835Z,9.82
2023-02-21T08:47:23.406Z,8.05
2023-02-21T08:50:28.341Z,9.82
2023-02-21T08:53:29.878Z,8.02
2023-02-21T08:56:31.810Z,10.73
2023-02-21T08:59:34.863Z,13.10
2023-02-21T09:02:40.565Z,10.07
2023-02-21T09:05:42.061Z,8.77
2023-02-21T09:08:43.714Z,8.82
2023-02-21T09:11:48.322Z,8.25
2023-02-21T09:14:49.796Z,14.52
2023-02-21T09:17:54.344Z,8.23
2023-02-21T09:20:57.427Z,10.18
2023-02-21T09:24:02.935Z,11.02
2023-02-21T09:27:06.078Z,6.38
2023-02-21T09:30:09.943Z,7.10
2023-02-21T09:33:12.394Z,12.40
2023-02-21T09:36:13.947Z,7.07
2023-02-21T09:39:16.162Z,9.43
2023-02-21T09:42:18.907Z,8.82
2023-02-21T09:45:22.408Z,9.02
2023-02-21T09:48:24.261Z,9.05
2023-02-21T09:51:26.558Z,8.77
2023-02-21T09:54:35.788Z,7.03
2023-02-21T09:57:37.775Z,12.55
2023-02-21T10:00:39.625Z,7.13
2023-02-21T10:03:51.882Z,5.53
2023-02-21T10:06:59.742Z,11.85
2023-02-21T10:10:10.222Z,9.52
2023-02-21T10:13:17.486Z,8.75
2023-02-21T10:16:32.077Z,9.73
2023-02-21T10:19:42.074Z,6.97
2023-02-21T10:22:47.537Z,6.57
2023-02-21T10:25:55.400Z,5.78
2023-02-21T10:28:57.236Z,6.40
2023-02-21T10:32:03.324Z,18.13
2023-02-21T10:35:05.235Z,5.30
2023-02-21T10:38:11.553Z,7.55
2023-02-21T10:41:13.349Z,8.55
2023-02-21T10:44:26.952Z,8.32
2023-02-21T10:47:58.766Z,14.88
2023-02-21T10:51:03.385Z,4.18
2023-02-21T10:54:25.345Z,5.70
2023-02-21T10:57:27.928Z,7.95
2023-02-21T11:00:38.876Z,9.40
2023-02-21T11:03:46.948Z,5.05
2023-02-21T11:06:51.549Z,10.23
2023-02-21T11:09:53.153Z,11.27
2023-02-21T11:13:10.237Z,10.95
2023-02-21T11:16:24.590Z,9.00
2023-02-21T11:22:34.813Z,6.57
2023-02-21T11:25:40.466Z,6.53
2023-02-21T11:28:47.439Z,6.53
2023-02-21T11:31:48.997Z,6.93
2023-02-21T11:34:51.145Z,8.25
2023-02-21T11:38:05.565Z,9.07
2023-02-21T11:44:38.182Z,12.57
2023-02-21T11:47:46.394Z,8.23
2023-02-21T11:50:53.499Z,9.35
2023-02-21T11:53:55.005Z,8.40
2023-02-21T11:57:06.671Z,8.45
2023-02-21T12:00:25.743Z,8.30
2023-02-21T12:03:37.469Z,10.68
2023-02-21T12:06:50.303Z,8.65
2023-02-21T12:10:03.854Z,11.52
2023-02-21T12:13:33.591Z,10.20
2023-02-21T12:16:53.649Z,5.93
2023-02-21T12:20:13.810Z,6.38
2023-02-21T12:23:41.313Z,8.02
2023-02-21T12:26:51.520Z,10.65
2023-02-21T12:30:11.927Z,7.25
2023-02-21T12:33:16.200Z,6.35
2023-02-21T12:36:30.563Z,7.38
2023-02-21T12:43:30.192Z,7.20
2023-02-21T12:46:45.464Z,7.47
2023-02-21T12:49:46.941Z,6.10
2023-02-21T12:53:03.418Z,7.35
2023-02-21T12:56:13.950Z,6.43
2023-02-21T12:59:42.508Z,7.47
2023-02-21T13:03:01.242Z,20.45
2023-02-21T13:06:09.915Z,6.50
2023-02-21T13:09:20.131Z,6.22
2023-02-21T13:12:28.231Z,5.00
2023-02-21T13:15:31.110Z,7.55
2023-02-21T13:18:40.589Z,11.90
2023-02-21T13:21:54.340Z,8.63
2023-02-21T13:25:18.078Z,7.55
2023-02-21T13:28:25.614Z,6.78
2023-02-21T13:31:38.172Z,4.20
2023-02-21T13:34:45.692Z,6.35
2023-02-21T13:37:51.818Z,5.60
2023-02-21T13:41:03.145Z,5.38
2023-02-21T13:44:27.901Z,8.38
2023-02-21T13:47:55.136Z,5.97
2023-02-21T13:50:59.111Z,7.43
2023-02-21T13:54:24.863Z,6.13
2023-02-21T13:57:34.545Z,5.70
2023-02-21T14:00:36.022Z,7.75
2023-02-21T14:03:37.547Z,7.97
2023-02-21T14:06:40.170Z,6.70
2023-02-21T14:09:42.345Z,7.78
2023-02-21T14:12:45.294Z,8.73
2023-02-21T14:15:49.731Z,6.43
2023-02-21T14:19:07.379Z,8.05
2023-02-21T14:22:25.045Z,8.77
2023-02-21T14:25:27.743Z,5.30
2023-02-21T14:29:08.422Z,5.93
2023-02-21T14:32:10.000Z,5.32
2023-02-21T14:35:35.417Z,4.78
2023-02-21T14:38:42.325Z,7.07
2023-02-21T14:42:05.728Z,7.53
2023-02-21T14:45:10.019Z,8.68
2023-02-21T14:48:33.841Z,5.57
2023-02-21T14:52:19.719Z,7.10
2023-02-21T14:55:50.746Z,6.13
2023-02-21T14:59:39.932Z,5.93
2023-02-21T15:02:50.038Z,7.70
2023-02-21T15:06:03.939Z,7.97
2023-02-21T15:09:17.569Z,7.00
2023-02-21T15:12:19.062Z,7.40
2023-02-21T15:15:22.981Z,4.07
2023-02-21T15:18:29.742Z,7.05
2023-02-21T15:21:31.271Z,6.68
2023-02-21T15:24:32.728Z,7.30
2023-02-21T15:27:51.530Z,7.22
2023-02-21T15:31:00.441Z,5.55
2023-02-21T15:34:02.778Z,5.78
2023-02-21T15:37:16.382Z,4.97
2023-02-21T15:40:23.176Z,4.78
2023-02-21T15:43:44.840Z,7.32
2023-02-21T15:47:08.923Z,8.85
2023-02-21T15:50:18.725Z,5.35
2023-02-21T15:53:24.837Z,5.65
2023-02-21T15:56:28.509Z,5.75
2023-02-21T15:59:30.847Z,4.72
2023-02-21T16:02:32.559Z,6.43
2023-02-21T16:05:34.040Z,9.10
2023-02-21T16:08:39.196Z,9.40
2023-02-21T16:12:19.551Z,12.65
2023-02-21T16:15:25.959Z,13.77
2023-02-21T16:18:27.508Z,12.20
2023-02-21T16:21:29.828Z,8.40
2023-02-21T16:24:32.745Z,8.10
2023-02-21T16:27:34.331Z,11.80
2023-02-21T16:30:35.996Z,14.40
2023-02-21T16:33:37.512Z,9.90
2023-02-21T16:36:40.895Z,13.70
2023-02-21T16:39:42.806Z,9.20
2023-02-21T16:42:44.282Z,13.23
2023-02-21T16:45:48.482Z,14.73
2023-02-21T16:48:50.026Z,11.52
2023-02-21T16:51:51.494Z,18.90
2023-02-21T16:54:52.960Z,23.98
2023-02-21T16:57:59.214Z,22.70
2023-02-21T17:01:07.955Z,22.52
2023-02-21T17:04:22.960Z,22.25
2023-02-21T17:07:25.639Z,24.05
2023-02-21T17:10:27.185Z,17.67
2023-02-21T17:13:28.609Z,16.20
2023-02-21T17:16:30.667Z,11.93
2023-02-21T17:19:32.499Z,13.48
2023-02-21T17:22:34.522Z,11.63
2023-02-21T17:25:36.505Z,13.95
2023-02-21T17:28:39.361Z,14.90
2023-02-21T17:31:40.932Z,14.57
2023-02-21T17:34:43.206Z,11.40
2023-02-21T17:37:47.451Z,11.45
2023-02-21T17:40:49.510Z,10.02
2023-02-21T17:43:51.044Z,10.73
2023-02-21T17:46:55.832Z,9.80
2023-02-21T17:50:01.829Z,11.55
2023-02-21T17:53:04.374Z,12.82
2023-02-21T17:56:05.895Z,12.55
2023-02-21T17:59:07.447Z,11.73
2023-02-21T18:02:08.978Z,14.30
2023-02-21T18:05:10.573Z,13.77
2023-02-21T18:08:12.090Z,14.57
2023-02-21T18:11:16.350Z,9.55
2023-02-21T18:14:19.031Z,10.02
2023-02-21T18:17:20.677Z,11.55
2023-02-21T18:20:22.414Z,12.80
2023-02-21T18:23:23.849Z,11.98
2023-02-21T18:26:25.360Z,13.05
2023-02-21T18:29:26.935Z,15.07
2023-02-21T18:32:28.521Z,9.18
2023-02-21T18:35:30.182Z,14.15
2023-02-21T18:38:31.676Z,11.15
2023-02-21T18:41:33.470Z,11.35
2023-02-21T18:44:35.007Z,16.92
2023-02-21T18:47:36.466Z,11.82
2023-02-21T18:50:37.997Z,12.35
2023-02-21T18:53:40.052Z,12.43
2023-02-21T18:56:49.147Z,16.00
2023-02-21T18:59:50.723Z,11.05
2023-02-21T19:02:52.618Z,12.57
2023-02-21T19:05:54.092Z,12.52
2023-02-21T19:08:55.658Z,9.45
2023-02-21T19:11:57.161Z,9.63
2023-02-21T19:14:58.675Z,14.45
2023-02-21T19:18:00.351Z,12.45
2023-02-21T19:21:01.953Z,11.70
2023-02-21T19:24:04.253Z,11.57
2023-02-21T19:27:05.761Z,15.93
2023-02-21T19:30:07.929Z,11.18
2023-02-21T19:33:09.442Z,12.10
2023-02-21T19:36:11.890Z,15.32
2023-02-21T19:39:13.722Z,15.82
2023-02-21T19:42:15.220Z,13.55
2023-02-21T19:45:18.077Z,14.52
2023-02-21T19:48:21.197Z,13.27
2023-02-21T19:51:25.017Z,9.95
2023-02-21T19:54:32.639Z,15.18
2023-02-21T19:57:34.222Z,11.77
2023-02-21T20:00:38.503Z,13.30
2023-02-21T20:03:41.792Z,16.75
2023-02-21T20:06:43.233Z,12.53
2023-02-21T20:09:48.238Z,19.40
2023-02-21T20:12:49.801Z,11.90
2023-02-21T20:15:51.400Z,20.30
2023-02-21T20:18:54.255Z,23.77
2023-02-21T20:21:57.129Z,17.25
2023-02-21T20:24:58.640Z,15.90
2023-02-21T20:28:00.416Z,11.73
2023-02-21T20:31:01.998Z,16.15
2023-02-21T20:34:06.759Z,14.02
2023-02-21T20:37:10.995Z,14.38
2023-02-21T20:43:16.755Z,10.25
2023-02-21T20:46:22.664Z,11.93
2023-02-21T20:49:24.137Z,20.35
2023-02-21T20:52:25.604Z,14.90
2023-02-21T20:55:27.148Z,11.23
2023-02-21T20:58:29.133Z,10.18
2023-02-21T21:01:31.325Z,10.07
2023-02-21T21:04:38.306Z,10.18
2023-02-21T21:07:41.343Z,9.18
2023-02-21T21:10:48.379Z,11.70
2023-02-21T21:13:50.104Z,9.32
2023-02-21T21:16:52.397Z,13.25
2023-02-21T21:19:54.816Z,11.00
2023-02-21T21:22:56.339Z,10.30
2023-02-21T21:26:02.022Z,8.73
2023-02-21T21:29:08.964Z,10.32
2023-02-21T21:32:12.559Z,7.90
2023-02-21T21:35:17.003Z,6.13
2023-02-21T21:38:18.901Z,7.43
2023-02-21T21:41:20.416Z,7.70
2023-02-21T21:44:23.145Z,6.60
2023-02-21T21:47:27.007Z,7.68
2023-02-21T21:50:28.457Z,8.55
2023-02-21T21:53:30.036Z,7.65
2023-02-21T21:56:31.794Z,9.50
2023-02-21T21:59:33.479Z,5.65
2023-02-21T22:02:34.974Z,7.53
2023-02-21T22:05:36.540Z,4.78
2023-02-21T22:08:38.912Z,7.05
2023-02-21T22:11:42.659Z,5.57
2023-02-21T22:14:44.125Z,8.73
2023-02-21T22:17:45.664Z,5.78
2023-02-21T22:20:50.023Z,8.00
2023-02-21T22:23:51.993Z,7.50
2023-02-21T22:26:55.328Z,8.38
2023-02-21T22:29:58.341Z,8.43
2023-02-21T22:32:59.898Z,8.77
2023-02-21T22:36:02.267Z,7.95
2023-02-21T22:39:11.011Z,6.65
2023-02-21T22:42:12.609Z,7.07
2023-02-21T22:45:14.056Z,6.53
2023-02-21T22:48:18.322Z,7.38
2023-02-21T22:51:27.872Z,5.53
2023-02-21T22:54:31.581Z,5.97
2023-02-21T22:57:33.368Z,7.35
2023-02-21T23:00:35.796Z,9.27
2023-02-21T23:03:40.713Z,8.93
2023-02-21T23:06:43.608Z,7.15
2023-02-21T23:09:45.394Z,6.85
2023-02-21T23:12:49.697Z,6.80
2023-02-21T23:15:53.690Z,5.00
2023-02-21T23:18:56.181Z,7.85
2023-02-21T23:21:58.017Z,6.10
2023-02-21T23:24:59.442Z,6.72
2023-02-21T23:28:06.998Z,6.05
2023-02-21T23:31:08.457Z,6.13
2023-02-21T23:34:11.941Z,6.88
2023-02-21T23:37:15.251Z,5.63
2023-02-21T23:40:19.828Z,5.63
2023-02-21T23:43:25.080Z,7.25
2023-02-21T23:46:29.123Z,4.95
2023-02-21T23:52:32.260Z,5.95
2023-02-21T23:55:35.730Z,4.18
2023-02-21T23:58:38.996Z,5.20
